Time;durP1;ratioP1;P1;durP2;ratioP2;P2;SDS_P1;SDS_P2;PMS_P1;PMS_P2;Temp;Humidity;BMP_temperature;BMP_pressure;BME280_temperature;BME280_humidity;BME280_pressure;Samples;Min_cycle;Max_cycle;Signal;HPM_P1;HPM_P2
2023/12/22 00:02:01;;;;;;;5.07;1.87;;;14.30;99.90;;;;;;5079031;28;20621;-89
2023/12/22 00:04:29;;;;;;;2.27;1.40;;;14.40;99.90;;;;;;5077731;28;20163;-89
2023/12/22 00:07:06;;;;;;;2.57;1.57;;;14.30;99.90;;;;;;5083843;28;20163;-90
2023/12/22 00:09:35;;;;;;;2.43;1.30;;;14.30;99.90;;;;;;5081080;28;20167;-89
2023/12/22 00:12:07;;;;;;;2.50;1.53;;;14.30;99.90;;;;;;5076200;28;20172;-90
2023/12/22 00:14:37;;;;;;;1.63;1.20;;;14.30;99.90;;;;;;5087536;28;20182;-89
2023/12/22 00:17:06;;;;;;;3.03;1.57;;;14.40;99.90;;;;;;5092619;28;20185;-90
2023/12/22 00:19:34;;;;;;;3.90;1.70;;;14.30;99.90;;;;;;5084351;28;20222;-90
2023/12/22 00:22:03;;;;;;;2.73;1.50;;;14.30;99.90;;;;;;5075806;28;20572;-91
2023/12/22 00:24:32;;;;;;;2.10;1.60;;;14.30;99.90;;;;;;5084002;28;20436;-91
2023/12/22 00:26:57;;;;;;;3.17;1.63;;;14.30;99.90;;;;;;5094711;28;20225;-91
2023/12/22 00:29:23;;;;;;;1.97;1.40;;;14.30;99.90;;;;;;5082965;28;20539;-91
2023/12/22 00:31:49;;;;;;;2.67;1.27;;;14.30;99.90;;;;;;5094254;28;20185;-91
2023/12/22 00:34:19;;;;;;;4.47;1.87;;;14.30;99.90;;;;;;5095606;28;20569;-91
2023/12/22 00:36:45;;;;;;;3.77;1.53;;;14.30;99.90;;;;;;5095657;28;20277;-91
2023/12/22 00:39:14;;;;;;;2.73;1.40;;;14.30;99.90;;;;;;5082458;28;20273;-91
2023/12/22 00:41:42;;;;;;;2.37;1.33;;;14.30;99.90;;;;;;5096454;28;20174;-90
2023/12/22 00:44:11;;;;;;;2.57;1.57;;;14.30;99.90;;;;;;5083445;28;20179;-90
2023/12/22 00:46:39;;;;;;;2.43;1.40;;;14.30;99.90;;;;;;5097110;28;20232;-91
2023/12/22 00:49:08;;;;;;;2.03;1.33;;;14.30;99.90;;;;;;5090893;28;20176;-91
2023/12/22 00:51:33;;;;;;;1.63;1.10;;;14.30;99.90;;;;;;5075286;28;20204;-91
2023/12/22 00:53:59;;;;;;;2.70;1.40;;;14.30;99.90;;;;;;5088679;28;20753;-91
2023/12/22 00:56:27;;;;;;;3.37;1.60;;;14.30;99.90;;;;;;5078210;28;20598;-91
2023/12/22 00:58:56;;;;;;;1.90;1.30;;;14.30;99.90;;;;;;5081137;28;20594;-91
2023/12/22 01:01:22;;;;;;;3.50;1.57;;;14.30;99.90;;;;;;5079518;28;20222;-91
2023/12/22 01:03:47;;;;;;;2.50;1.60;;;14.30;99.90;;;;;;5079598;28;20456;-91
2023/12/22 01:06:16;;;;;;;2.47;1.37;;;14.30;99.90;;;;;;5095385;28;20186;-90
2023/12/22 01:08:44;;;;;;;2.43;1.43;;;14.30;99.90;;;;;;5092060;28;20259;-91
2023/12/22 01:11:13;;;;;;;1.90;1.43;;;14.30;99.90;;;;;;5083464;28;20171;-91
2023/12/22 01:13:41;;;;;;;3.10;1.60;;;14.30;99.90;;;;;;5076498;28;20181;-90
2023/12/22 01:16:08;;;;;;;2.10;1.20;;;14.30;99.90;;;;;;5081542;28;20178;-91
2023/12/22 01:18:37;;;;;;;2.17;1.40;;;14.30;99.90;;;;;;5093820;28;20322;-91
2023/12/22 01:21:06;;;;;;;3.37;1.43;;;14.30;99.90;;;;;;5083929;28;20506;-90
2023/12/22 01:23:34;;;;;;;2.53;1.27;;;14.30;99.90;;;;;;5095099;28;20187;-91
2023/12/22 01:26:00;;;;;;;1.90;1.43;;;14.30;99.90;;;;;;5093462;28;20213;-91
2023/12/22 01:28:29;;;;;;;2.20;1.30;;;14.30;99.90;;;;;;5093616;28;20175;-91
2023/12/22 01:30:57;;;;;;;2.60;1.30;;;14.30;99.90;;;;;;5081306;28;20265;-91
2023/12/22 01:33:23;;;;;;;2.00;1.20;;;14.30;99.90;;;;;;5094435;28;20574;-91
2023/12/22 01:35:49;;;;;;;2.37;1.43;;;14.30;99.90;;;;;;5082122;28;20196;-91
2023/12/22 01:38:15;;;;;;;2.60;1.60;;;14.20;99.90;;;;;;5095775;28;20183;-91
2023/12/22 01:40:41;;;;;;;1.53;1.10;;;14.20;99.90;;;;;;5088851;28;20210;-91
2023/12/22 01:43:10;;;;;;;2.53;1.47;;;14.20;99.90;;;;;;5074389;28;20176;-91
2023/12/22 01:45:43;;;;;;;1.93;1.37;;;14.20;99.90;;;;;;5081683;28;20163;-92
2023/12/22 01:48:09;;;;;;;2.63;1.30;;;14.20;99.90;;;;;;5077001;28;20183;-91
2023/12/22 01:50:36;;;;;;;2.43;1.27;;;14.30;99.90;;;;;;5080414;28;20178;-91
2023/12/22 01:53:02;;;;;;;2.70;1.10;;;14.20;99.90;;;;;;5078030;28;20376;-91
2023/12/22 01:55:29;;;;;;;1.83;1.30;;;14.20;99.90;;;;;;5077847;28;20244;-91
2023/12/22 01:57:56;;;;;;;1.70;1.20;;;14.20;99.90;;;;;;5082603;28;20177;-91
2023/12/22 02:00:22;;;;;;;1.47;1.10;;;14.20;99.90;;;;;;5076689;28;20262;-91
2023/12/22 02:02:55;;;;;;;3.30;1.40;;;14.20;99.90;;;;;;5085454;28;20167;-91
2023/12/22 02:05:24;;;;;;;2.50;1.20;;;14.20;99.90;;;;;;5076222;28;20263;-91
2023/12/22 02:07:50;;;;;;;2.90;1.40;;;14.20;99.90;;;;;;5081101;28;20534;-90
2023/12/22 02:10:16;;;;;;;1.60;1.20;;;14.20;99.90;;;;;;5089593;28;20185;-91
2023/12/22 02:12:44;;;;;;;2.60;1.20;;;14.20;99.90;;;;;;5080576;28;20171;-91
2023/12/22 02:15:16;;;;;;;2.90;1.30;;;14.20;99.90;;;;;;5091621;28;20587;-91
2023/12/22 02:18:03;;;;;;;2.50;1.40;;;14.20;99.90;;;;;;5083510;28;20188;-91
2023/12/22 02:20:32;;;;;;;1.53;1.27;;;14.20;99.90;;;;;;5073232;28;20210;-91
2023/12/22 02:22:58;;;;;;;1.77;1.20;;;14.20;99.90;;;;;;5082961;28;20187;-91
2023/12/22 02:25:26;;;;;;;1.60;1.27;;;14.20;99.90;;;;;;5072563;28;20219;-91
2023/12/22 02:28:19;;;;;;;2.27;1.10;;;14.20;99.90;;;;;;5087644;28;20187;-91
2023/12/22 02:30:56;;;;;;;1.53;1.10;;;14.20;99.90;;;;;;5092701;28;20185;-91
2023/12/22 02:33:28;;;;;;;1.80;1.00;;;14.20;99.90;;;;;;5090442;28;20179;-91
2023/12/22 02:35:58;;;;;;;2.40;1.10;;;14.20;99.90;;;;;;5092835;28;20680;-92
2023/12/22 02:38:30;;;;;;;2.60;1.30;;;14.20;99.90;;;;;;5085957;28;20176;-89
2023/12/22 02:40:57;;;;;;;1.93;1.20;;;14.20;99.90;;;;;;5073020;28;20274;-89
2023/12/22 02:43:23;;;;;;;2.50;1.30;;;14.20;99.90;;;;;;5085892;28;20255;-89
2023/12/22 02:45:52;;;;;;;1.77;1.10;;;14.20;99.90;;;;;;5091020;28;20405;-89
2023/12/22 02:48:20;;;;;;;2.30;1.20;;;14.20;99.90;;;;;;5076369;28;20230;-89
2023/12/22 02:50:50;;;;;;;1.60;1.17;;;14.20;99.90;;;;;;5090244;28;20440;-89
2023/12/22 02:53:16;;;;;;;1.60;1.17;;;14.20;99.90;;;;;;5090077;28;20225;-90
2023/12/22 02:55:44;;;;;;;1.73;1.10;;;14.20;99.90;;;;;;5071712;28;20206;-89
2023/12/22 02:58:17;;;;;;;1.47;1.10;;;14.20;99.90;;;;;;5079996;28;20461;-89
2023/12/22 03:00:52;;;;;;;2.37;1.13;;;14.20;99.90;;;;;;5072845;28;20203;-89
2023/12/22 03:03:17;;;;;;;1.70;1.30;;;14.20;99.90;;;;;;5079599;28;20248;-89
2023/12/22 03:05:46;;;;;;;3.70;1.20;;;14.20;99.90;;;;;;5074869;28;20526;-89
2023/12/22 03:08:15;;;;;;;1.77;1.10;;;14.20;99.90;;;;;;5078517;28;20229;-89
2023/12/22 03:10:40;;;;;;;1.87;1.23;;;14.20;99.90;;;;;;5076488;28;20178;-89
2023/12/22 03:13:09;;;;;;;1.57;1.10;;;14.20;99.90;;;;;;5075826;28;20551;-88
2023/12/22 03:15:38;;;;;;;1.60;1.00;;;14.20;99.90;;;;;;5079639;28;20176;-88
2023/12/22 03:18:04;;;;;;;2.00;1.13;;;14.20;99.90;;;;;;5078365;28;20177;-88
2023/12/22 03:20:33;;;;;;;1.47;1.00;;;14.20;99.90;;;;;;5081672;28;20210;-89
2023/12/22 03:22:58;;;;;;;2.30;1.20;;;14.20;99.90;;;;;;5075751;28;20445;-89
2023/12/22 03:25:27;;;;;;;3.07;1.00;;;14.20;99.90;;;;;;5092376;28;20579;-88
2023/12/22 03:27:56;;;;;;;2.37;1.20;;;14.20;99.90;;;;;;5091768;28;20184;-88
2023/12/22 03:30:22;;;;;;;1.40;1.20;;;14.20;99.90;;;;;;5080041;28;20568;-88
2023/12/22 03:32:48;;;;;;;1.57;1.20;;;14.20;99.90;;;;;;5091028;28;20174;-89
2023/12/22 03:35:16;;;;;;;2.37;1.20;;;14.20;99.90;;;;;;5081309;28;20193;-89
2023/12/22 03:37:45;;;;;;;1.80;1.00;;;14.20;99.90;;;;;;5093659;28;20186;-88
2023/12/22 03:40:14;;;;;;;1.93;1.10;;;14.20;99.90;;;;;;5092350;28;20205;-89
2023/12/22 03:42:42;;;;;;;2.43;1.10;;;14.20;99.90;;;;;;5092798;28;20169;-88
2023/12/22 03:45:11;;;;;;;1.43;1.10;;;14.20;99.90;;;;;;5092782;28;20182;-88
2023/12/22 03:47:39;;;;;;;1.33;1.00;;;14.20;99.90;;;;;;5091661;28;20167;-89
2023/12/22 03:50:12;;;;;;;1.53;1.07;;;14.20;99.90;;;;;;5077551;28;20546;-89
2023/12/22 03:52:38;;;;;;;1.50;0.93;;;14.20;99.90;;;;;;5089272;28;20250;-89
2023/12/22 03:55:06;;;;;;;1.67;1.20;;;14.20;99.90;;;;;;5080303;28;20175;-88
2023/12/22 03:57:35;;;;;;;1.70;1.13;;;14.20;99.90;;;;;;5086916;28;20395;-88
2023/12/22 04:00:04;;;;;;;2.43;1.10;;;14.20;99.90;;;;;;5081686;28;20218;-89
2023/12/22 04:02:30;;;;;;;1.83;1.00;;;14.20;99.90;;;;;;5085933;28;20178;-88
2023/12/22 04:04:58;;;;;;;1.47;1.10;;;14.20;99.90;;;;;;5085208;28;20178;-88
2023/12/22 04:07:24;;;;;;;1.43;1.10;;;14.20;99.90;;;;;;5083603;28;20211;-88
2023/12/22 04:09:51;;;;;;;1.80;1.20;;;14.20;99.90;;;;;;5088888;28;20174;-89
2023/12/22 04:12:20;;;;;;;1.50;1.10;;;14.20;99.90;;;;;;5079491;28;20213;-88
2023/12/22 04:14:45;;;;;;;2.27;1.00;;;14.20;99.90;;;;;;5075203;28;20175;-88
2023/12/22 04:17:14;;;;;;;3.40;1.20;;;14.20;99.90;;;;;;5079817;28;20486;-88
2023/12/22 04:19:47;;;;;;;1.87;1.00;;;14.20;99.90;;;;;;5091019;28;20195;-88
2023/12/22 04:22:16;;;;;;;1.60;1.00;;;14.20;99.90;;;;;;5080702;28;20177;-88
2023/12/22 04:24:44;;;;;;;1.33;0.90;;;14.20;99.90;;;;;;5092657;28;20171;-88
2023/12/22 04:27:13;;;;;;;1.40;1.00;;;14.20;99.90;;;;;;5082192;28;20173;-88
2023/12/22 04:29:39;;;;;;;2.30;0.90;;;14.20;99.90;;;;;;5093760;28;20287;-88
2023/12/22 04:32:05;;;;;;;2.63;1.10;;;14.10;99.90;;;;;;5085001;28;20336;-89
2023/12/22 04:34:30;;;;;;;1.43;1.10;;;14.20;99.90;;;;;;5072709;28;20176;-88
2023/12/22 04:36:59;;;;;;;1.57;1.00;;;14.20;99.90;;;;;;5077537;28;20181;-89
2023/12/22 04:39:27;;;;;;;1.60;0.93;;;14.30;99.90;;;;;;5092520;28;20176;-89
2023/12/22 04:41:53;;;;;;;1.90;0.90;;;14.30;99.90;;;;;;5093924;28;20207;-89
2023/12/22 04:44:18;;;;;;;1.80;1.10;;;14.50;99.90;;;;;;5094800;28;20178;-89
2023/12/22 04:46:47;;;;;;;1.33;1.10;;;14.70;99.90;;;;;;5083712;28;20181;-89
2023/12/22 04:49:13;;;;;;;2.57;1.10;;;14.80;99.90;;;;;;5088613;28;20174;-89
2023/12/22 04:51:42;;;;;;;1.30;0.97;;;15.00;99.90;;;;;;5087396;28;20262;-88
2023/12/22 04:54:11;;;;;;;1.97;0.90;;;15.20;99.90;;;;;;5091339;28;20174;-88
2023/12/22 04:56:36;;;;;;;1.87;1.00;;;15.40;99.40;;;;;;5091192;28;20448;-89
2023/12/22 04:59:09;;;;;;;1.40;1.00;;;15.50;99.10;;;;;;5088583;28;20381;-90
2023/12/22 05:01:37;;;;;;;1.67;1.10;;;15.50;98.80;;;;;;5093596;28;20231;-89
2023/12/22 05:04:06;;;;;;;1.80;0.97;;;15.50;98.70;;;;;;5083602;28;20177;-89
2023/12/22 05:06:32;;;;;;;1.60;0.93;;;15.50;98.70;;;;;;5076687;28;20171;-90
2023/12/22 05:09:02;;;;;;;1.67;1.00;;;15.50;98.60;;;;;;5086299;28;20184;-89
2023/12/22 05:11:28;;;;;;;1.20;1.00;;;15.50;98.60;;;;;;5077046;28;20186;-89
2023/12/22 05:13:53;;;;;;;1.67;1.00;;;15.40;98.70;;;;;;5083460;28;20171;-89
2023/12/22 05:16:22;;;;;;;1.43;1.00;;;15.30;98.70;;;;;;5095507;28;20198;-89
2023/12/22 05:18:50;;;;;;;1.00;0.90;;;15.30;98.90;;;;;;5087640;28;20175;-89
2023/12/22 05:21:19;;;;;;;1.30;0.90;;;15.20;99.10;;;;;;5075711;28;20208;-89
2023/12/22 05:23:45;;;;;;;1.67;1.07;;;15.20;99.20;;;;;;5091072;28;20174;-89
2023/12/22 05:26:22;;;;;;;1.57;1.00;;;15.10;99.30;;;;;;5095178;28;20252;-89
2023/12/22 05:28:51;;;;;;;1.00;0.87;;;15.00;99.50;;;;;;5096361;28;20198;-89
2023/12/22 05:31:23;;;;;;;1.97;1.20;;;14.90;99.70;;;;;;5095041;28;20176;-89
2023/12/22 05:33:49;;;;;;;1.77;0.90;;;14.90;99.70;;;;;;5082759;28;20250;-89
2023/12/22 05:36:17;;;;;;;1.37;0.90;;;14.90;99.80;;;;;;5095459;28;20211;-89
2023/12/22 05:38:43;;;;;;;1.10;0.83;;;14.80;99.90;;;;;;5083220;28;20179;-89
2023/12/22 05:41:09;;;;;;;1.03;0.90;;;14.80;99.90;;;;;;5094275;28;20435;-89
2023/12/22 05:43:37;;;;;;;1.97;0.97;;;14.70;99.90;;;;;;5086816;28;20620;-89
2023/12/22 05:46:06;;;;;;;1.00;0.90;;;14.70;99.90;;;;;;5091330;28;20321;-89
2023/12/22 05:48:35;;;;;;;1.57;0.90;;;14.60;99.90;;;;;;5089531;28;20165;-90
2023/12/22 05:53:50;;;;;;;1.00;0.90;;;14.50;99.90;;;;;;5086473;28;20177;-88
2023/12/22 05:56:22;;;;;;;1.20;0.83;;;14.40;99.90;;;;;;5078346;28;20179;-88
2023/12/22 05:58:51;;;;;;;1.53;1.00;;;14.40;99.90;;;;;;5077351;28;20171;-88
2023/12/22 06:01:22;;;;;;;2.10;1.20;;;14.40;99.90;;;;;;5094656;28;20274;-89
2023/12/22 06:03:50;;;;;;;2.43;1.00;;;14.50;99.90;;;;;;5088413;28;20174;-89
2023/12/22 06:06:18;;;;;;;1.73;1.10;;;14.50;99.90;;;;;;5078242;28;20242;-89
2023/12/22 06:08:46;;;;;;;1.67;1.00;;;14.60;99.90;;;;;;5075236;28;20165;-89
2023/12/22 06:11:15;;;;;;;1.63;1.10;;;14.60;99.90;;;;;;5080604;28;20181;-89
2023/12/22 06:13:43;;;;;;;2.00;1.07;;;14.70;99.90;;;;;;5074376;28;20202;-88
2023/12/22 06:16:15;;;;;;;1.27;0.87;;;14.70;99.90;;;;;;5080911;28;20192;-89
2023/12/22 06:18:41;;;;;;;1.70;0.70;;;14.70;99.90;;;;;;5088640;28;20470;-89
2023/12/22 06:21:10;;;;;;;1.40;1.00;;;14.70;99.90;;;;;;5083212;28;20207;-89
2023/12/22 06:23:36;;;;;;;0.83;0.70;;;14.80;99.90;;;;;;5070193;28;20251;-89
2023/12/22 06:26:08;;;;;;;1.67;0.80;;;14.80;99.90;;;;;;5089737;28;20437;-89
2023/12/22 06:28:39;;;;;;;1.50;0.90;;;14.70;99.90;;;;;;5092976;28;20226;-89
2023/12/22 06:31:20;;;;;;;1.10;0.90;;;14.70;99.90;;;;;;5079847;28;20179;-89
2023/12/22 06:33:53;;;;;;;1.40;0.97;;;14.70;99.90;;;;;;5091691;28;20275;-89
2023/12/22 06:36:25;;;;;;;0.73;0.73;;;14.60;99.90;;;;;;5079502;28;20186;-89
2023/12/22 06:38:57;;;;;;;1.87;0.90;;;14.60;99.90;;;;;;5091497;28;20191;-89
2023/12/22 06:41:30;;;;;;;1.73;0.90;;;14.60;99.90;;;;;;5076428;28;20317;-89
2023/12/22 06:43:57;;;;;;;1.33;0.90;;;14.60;99.90;;;;;;5087905;28;20186;-89
2023/12/22 06:46:28;;;;;;;1.37;0.80;;;14.50;99.90;;;;;;5075156;28;20171;-89
2023/12/22 06:48:55;;;;;;;1.00;0.80;;;14.50;99.90;;;;;;5098588;28;20190;-89
2023/12/22 06:51:24;;;;;;;1.93;0.90;;;14.40;99.90;;;;;;5089630;28;20189;-89
2023/12/22 06:53:50;;;;;;;1.30;0.90;;;14.40;99.90;;;;;;5089538;28;20589;-89
2023/12/22 06:56:21;;;;;;;1.10;0.90;;;14.40;99.90;;;;;;5078494;28;20171;-89
2023/12/22 06:58:48;;;;;;;1.60;0.90;;;14.30;99.90;;;;;;5090388;28;20232;-89
2023/12/22 07:01:37;;;;;;;1.17;0.80;;;14.30;99.90;;;;;;5081406;28;20212;-89
2023/12/22 07:04:04;;;;;;;1.10;0.80;;;14.30;99.90;;;;;;5087343;28;20372;-89
2023/12/22 07:06:32;;;;;;;2.60;1.00;;;14.30;99.90;;;;;;5077107;28;20533;-89
2023/12/22 07:09:22;;;;;;;1.13;0.97;;;14.20;99.90;;;;;;5085866;28;20376;-89
2023/12/22 07:11:55;;;;;;;1.00;0.80;;;14.20;99.90;;;;;;5076709;28;20364;-89
2023/12/22 07:14:24;;;;;;;1.43;0.83;;;14.30;99.90;;;;;;5086595;28;20481;-89
2023/12/22 07:16:52;;;;;;;1.37;0.90;;;14.30;99.90;;;;;;5078026;28;20171;-89
2023/12/22 07:19:19;;;;;;;1.10;1.00;;;14.30;99.90;;;;;;5087151;28;20169;-89
2023/12/22 07:21:48;;;;;;;1.03;0.90;;;14.40;99.90;;;;;;5080909;28;20166;-89
2023/12/22 07:24:16;;;;;;;1.40;0.93;;;14.40;99.90;;;;;;5083767;28;20266;-89
2023/12/22 07:26:45;;;;;;;1.87;1.00;;;14.50;99.90;;;;;;5082948;28;20591;-89
2023/12/22 07:29:14;;;;;;;0.93;0.80;;;14.50;99.90;;;;;;5080861;28;20270;-89
2023/12/22 07:31:42;;;;;;;1.53;1.00;;;14.60;99.90;;;;;;5083121;28;20428;-89
2023/12/22 07:34:11;;;;;;;1.23;1.00;;;14.60;99.90;;;;;;5074062;28;20473;-89
2023/12/22 07:36:39;;;;;;;1.17;0.90;;;14.60;99.90;;;;;;5067183;28;20451;-89
2023/12/22 07:39:09;;;;;;;1.13;0.90;;;14.70;99.90;;;;;;5075967;28;20289;-89
2023/12/22 07:41:35;;;;;;;1.37;1.00;;;14.70;99.90;;;;;;5070998;28;20240;-89
2023/12/22 07:44:03;;;;;;;1.23;0.80;;;14.60;99.90;;;;;;5075281;28;20206;-89
2023/12/22 07:46:33;;;;;;;1.57;0.87;;;14.60;99.90;;;;;;5087000;28;20477;-89
2023/12/22 07:49:02;;;;;;;1.83;1.10;;;14.60;99.90;;;;;;5087889;28;20572;-89
2023/12/22 07:51:31;;;;;;;1.10;0.90;;;14.60;99.90;;;;;;5088289;28;20714;-89
2023/12/22 07:53:56;;;;;;;1.90;1.10;;;14.60;99.90;;;;;;5078293;28;20378;-89
2023/12/22 07:56:22;;;;;;;1.67;1.07;;;14.60;99.90;;;;;;5067632;28;20187;-89
2023/12/22 07:58:48;;;;;;;2.80;0.93;;;14.50;99.90;;;;;;5080090;28;20356;-89
2023/12/22 08:01:17;;;;;;;2.07;1.00;;;14.50;99.90;;;;;;5085995;28;20216;-89
2023/12/22 08:03:43;;;;;;;1.87;1.37;;;14.50;99.90;;;;;;5072881;28;20560;-89
2023/12/22 08:06:13;;;;;;;1.03;0.87;;;14.40;99.90;;;;;;5085628;28;20803;-89
2023/12/22 08:08:43;;;;;;;2.83;1.10;;;14.40;99.90;;;;;;5075268;28;20476;-89
2023/12/22 08:11:09;;;;;;;1.83;1.00;;;14.40;99.90;;;;;;5086924;28;20178;-89
2023/12/22 08:13:35;;;;;;;2.13;1.10;;;14.40;99.90;;;;;;5083866;28;20171;-89
2023/12/22 08:16:07;;;;;;;2.53;0.97;;;14.40;99.90;;;;;;5071831;28;20285;-91
2023/12/22 08:18:35;;;;;;;3.60;1.03;;;14.40;99.90;;;;;;5074291;28;20317;-89
2023/12/22 08:21:04;;;;;;;2.50;1.33;;;14.40;99.90;;;;;;5070279;28;20202;-89
2023/12/22 08:23:33;;;;;;;3.53;1.37;;;14.40;99.90;;;;;;5071169;28;20264;-89
2023/12/22 08:26:02;;;;;;;3.73;1.10;;;14.40;99.90;;;;;;5087000;28;20237;-89
2023/12/22 08:28:27;;;;;;;2.77;1.33;;;14.40;99.90;;;;;;5087342;28;20159;-90
2023/12/22 08:30:54;;;;;;;2.20;1.20;;;14.30;99.90;;;;;;5077463;28;20242;-89
2023/12/22 08:33:23;;;;;;;2.87;1.50;;;14.30;99.90;;;;;;5074119;28;20229;-89
2023/12/22 08:35:51;;;;;;;3.50;1.47;;;14.40;99.90;;;;;;5090217;28;20180;-89
2023/12/22 08:38:20;;;;;;;7.83;1.60;;;14.40;99.90;;;;;;5088458;28;20171;-89
2023/12/22 08:40:49;;;;;;;2.37;1.50;;;14.40;99.90;;;;;;5091378;28;20332;-89
2023/12/22 08:43:15;;;;;;;3.83;1.23;;;14.40;99.90;;;;;;5092911;28;20581;-89
2023/12/22 08:45:43;;;;;;;4.83;1.37;;;14.50;99.90;;;;;;5092923;28;20459;-91
2023/12/22 08:48:11;;;;;;;3.27;1.20;;;14.50;99.90;;;;;;5091943;28;20479;-90
2023/12/22 08:50:37;;;;;;;4.20;1.47;;;14.50;99.90;;;;;;5082961;28;20167;-91
2023/12/22 08:53:06;;;;;;;5.07;1.47;;;14.50;99.90;;;;;;5091659;28;20362;-90
2023/12/22 08:55:35;;;;;;;5.57;1.63;;;14.50;99.90;;;;;;5077714;28;20172;-90
2023/12/22 08:58:00;;;;;;;4.80;1.60;;;14.60;99.90;;;;;;5092112;28;20252;-90
2023/12/22 09:00:29;;;;;;;3.87;1.53;;;14.60;99.90;;;;;;5081688;28;20290;-91
2023/12/22 09:02:57;;;;;;;4.83;1.40;;;14.60;99.90;;;;;;5090483;28;20195;-89
2023/12/22 09:05:26;;;;;;;5.93;1.50;;;14.60;99.90;;;;;;5083116;28;20171;-89
2023/12/22 09:07:55;;;;;;;8.43;2.13;;;14.60;99.90;;;;;;5088950;28;20190;-89
2023/12/22 09:10:26;;;;;;;4.63;1.77;;;14.60;99.90;;;;;;5091307;28;20198;-90
2023/12/22 09:12:52;;;;;;;5.83;1.97;;;14.60;99.90;;;;;;5088449;28;20306;-89
2023/12/22 09:15:18;;;;;;;5.63;1.97;;;14.50;99.90;;;;;;5088589;28;20500;-90
2023/12/22 09:17:54;;;;;;;5.00;1.70;;;14.50;99.90;;;;;;5076674;28;20185;-91
2023/12/22 09:20:19;;;;;;;6.03;1.80;;;14.50;99.90;;;;;;5075919;28;20210;-91
2023/12/22 09:22:48;;;;;;;4.07;1.97;;;14.50;99.90;;;;;;5077890;28;20177;-92
2023/12/22 09:25:15;;;;;;;5.80;1.63;;;14.50;99.90;;;;;;5072435;28;20205;-91
2023/12/22 09:27:41;;;;;;;8.33;2.33;;;14.50;99.90;;;;;;5079204;28;20258;-91
2023/12/22 09:30:13;;;;;;;3.63;1.63;;;14.40;99.90;;;;;;5073061;28;20270;-91
2023/12/22 09:32:47;;;;;;;5.57;2.00;;;14.40;99.90;;;;;;5090129;28;20175;-90
2023/12/22 09:35:18;;;;;;;8.80;1.83;;;14.40;99.90;;;;;;5088368;28;20192;-89
2023/12/22 09:37:47;;;;;;;3.90;1.80;;;14.40;99.90;;;;;;5075998;28;20178;-90
2023/12/22 09:40:13;;;;;;;4.40;1.50;;;14.40;99.90;;;;;;5088508;28;20192;-91
2023/12/22 09:42:44;;;;;;;6.70;2.30;;;14.40;99.90;;;;;;5089545;28;20419;-91
2023/12/22 09:45:18;;;;;;;5.23;1.70;;;14.40;99.90;;;;;;5091677;28;20420;-91
2023/12/22 09:47:57;;;;;;;6.00;1.90;;;14.40;99.90;;;;;;5076507;28;20170;-91
2023/12/22 09:50:27;;;;;;;4.83;1.87;;;14.30;99.90;;;;;;5086470;28;20184;-90
2023/12/22 09:52:52;;;;;;;5.53;1.80;;;14.30;99.90;;;;;;5080701;28;20241;-91
2023/12/22 09:55:32;;;;;;;4.47;2.00;;;14.40;99.90;;;;;;5069679;28;20171;-90
2023/12/22 09:58:04;;;;;;;4.27;1.50;;;14.40;99.90;;;;;;5081899;28;20203;-90
2023/12/22 10:00:38;;;;;;;3.90;1.80;;;14.40;99.90;;;;;;5069752;28;20302;-90
2023/12/22 10:03:08;;;;;;;4.63;1.57;;;14.50;99.90;;;;;;5085048;28;20534;-90
2023/12/22 10:05:34;;;;;;;4.13;1.80;;;14.50;99.90;;;;;;5090193;28;20171;-90
2023/12/22 10:08:01;;;;;;;4.13;1.87;;;14.60;99.90;;;;;;5087931;28;20217;-90
2023/12/22 10:10:32;;;;;;;6.23;1.80;;;14.60;99.90;;;;;;5091099;28;20387;-90
2023/12/22 10:13:04;;;;;;;4.07;2.10;;;14.60;99.90;;;;;;5085890;28;20223;-89
2023/12/22 10:15:30;;;;;;;4.33;1.77;;;14.60;99.90;;;;;;5070455;28;20179;-90
2023/12/22 10:17:59;;;;;;;6.13;1.80;;;14.60;99.90;;;;;;5079908;28;20278;-89
2023/12/22 10:20:28;;;;;;;3.97;1.60;;;14.60;99.90;;;;;;5087368;28;20201;-89
2023/12/22 10:22:57;;;;;;;7.80;2.00;;;14.60;99.90;;;;;;5088492;28;20238;-88
2023/12/22 10:25:32;;;;;;;3.30;1.53;;;14.60;99.90;;;;;;5083558;28;20170;-89
2023/12/22 10:27:58;;;;;;;3.20;1.77;;;14.60;99.90;;;;;;5087797;28;20262;-88
2023/12/22 10:30:28;;;;;;;4.13;1.70;;;14.60;99.90;;;;;;5099213;28;20254;-88
2023/12/22 10:32:57;;;;;;;3.97;1.80;;;14.60;99.90;;;;;;5097663;28;20183;-88
2023/12/22 10:35:29;;;;;;;4.40;1.70;;;14.60;99.90;;;;;;5096404;28;20252;-89
2023/12/22 10:37:56;;;;;;;4.73;1.87;;;14.60;99.90;;;;;;5087983;28;20204;-89
2023/12/22 10:40:22;;;;;;;7.10;2.10;;;14.50;99.90;;;;;;5076779;28;20213;-89
2023/12/22 10:42:51;;;;;;;4.80;1.80;;;14.50;99.90;;;;;;5081559;28;20215;-90
2023/12/22 10:45:39;;;;;;;3.60;1.60;;;14.50;99.90;;;;;;5081229;28;20430;-90
2023/12/22 10:48:11;;;;;;;3.30;1.73;;;14.50;99.90;;;;;;5072657;28;20344;-89
2023/12/22 10:50:43;;;;;;;5.87;1.80;;;14.50;99.90;;;;;;5075797;28;20572;-89
2023/12/22 10:53:11;;;;;;;3.47;1.90;;;14.50;99.90;;;;;;5074327;28;20170;-89
2023/12/22 10:55:40;;;;;;;5.40;2.07;;;14.50;99.90;;;;;;5076501;28;20214;-89
2023/12/22 10:58:06;;;;;;;4.00;2.10;;;14.50;99.90;;;;;;5069346;28;20179;-89
2023/12/22 11:00:40;;;;;;;4.10;1.80;;;14.50;99.90;;;;;;5072381;28;20222;-89
2023/12/22 11:03:16;;;;;;;4.53;1.87;;;14.50;99.90;;;;;;5084277;28;20572;-89
2023/12/22 11:05:47;;;;;;;4.93;2.17;;;14.50;99.90;;;;;;5082312;28;20254;-89
2023/12/22 11:08:18;;;;;;;5.67;1.83;;;14.40;99.90;;;;;;5084511;28;20272;-89
2023/12/22 11:10:54;;;;;;;4.27;1.70;;;14.40;99.90;;;;;;5073439;28;20592;-89
2023/12/22 11:13:26;;;;;;;4.43;1.70;;;14.40;99.90;;;;;;5085422;28;20443;-90
2023/12/22 11:15:58;;;;;;;4.47;1.80;;;14.40;99.90;;;;;;5075291;28;20309;-90
2023/12/22 11:18:31;;;;;;;6.07;2.20;;;14.40;99.90;;;;;;5086534;28;20188;-89
2023/12/22 11:21:04;;;;;;;4.43;1.93;;;14.50;99.90;;;;;;5078963;28;20594;-89
2023/12/22 11:23:34;;;;;;;7.57;2.20;;;14.50;99.90;;;;;;5066899;28;20456;-90
2023/12/22 11:26:07;;;;;;;4.03;1.87;;;14.50;99.90;;;;;;5079060;28;20183;-89
2023/12/22 11:28:34;;;;;;;5.87;2.30;;;14.50;99.90;;;;;;5066317;28;20245;-90
2023/12/22 11:31:06;;;;;;;7.47;2.00;;;14.50;99.90;;;;;;5082575;28;20265;-90
2023/12/22 11:33:38;;;;;;;5.20;1.80;;;14.60;99.90;;;;;;5088157;28;20274;-89
2023/12/22 11:36:05;;;;;;;5.13;1.83;;;14.60;99.90;;;;;;5074161;28;20199;-89
2023/12/22 11:38:34;;;;;;;5.00;2.13;;;14.60;99.90;;;;;;5086544;28;20551;-89
2023/12/22 11:41:05;;;;;;;5.10;1.80;;;14.60;99.90;;;;;;5074289;28;20451;-90
2023/12/22 11:43:38;;;;;;;4.33;1.80;;;14.70;99.90;;;;;;5088430;28;20195;-90
2023/12/22 11:46:04;;;;;;;5.13;2.00;;;14.60;99.90;;;;;;5075481;28;20464;-90
2023/12/22 11:48:30;;;;;;;4.37;1.87;;;14.60;99.90;;;;;;5086722;28;20439;-90
2023/12/22 11:50:56;;;;;;;4.17;1.50;;;14.60;99.90;;;;;;5074777;28;20643;-90
2023/12/22 11:53:32;;;;;;;4.20;1.70;;;14.60;99.90;;;;;;5081377;28;20175;-90
2023/12/22 11:56:04;;;;;;;4.30;1.70;;;14.60;99.90;;;;;;5076492;28;20180;-89
2023/12/22 11:58:40;;;;;;;4.07;2.00;;;14.60;99.90;;;;;;5082870;28;20183;-90
2023/12/22 12:01:10;;;;;;;3.63;1.87;;;14.60;99.90;;;;;;5081174;28;20243;-90
2023/12/22 12:04:05;;;;;;;4.30;1.80;;;14.50;99.90;;;;;;5087266;28;20174;-90
2023/12/22 12:06:37;;;;;;;3.47;2.00;;;14.50;99.90;;;;;;5077909;28;20180;-90
2023/12/22 12:09:17;;;;;;;4.13;2.13;;;14.50;99.90;;;;;;5088967;28;20175;-90
2023/12/22 12:11:52;;;;;;;4.00;1.80;;;14.50;99.90;;;;;;5078538;28;20180;-90
2023/12/22 12:14:30;;;;;;;3.67;1.53;;;14.50;99.90;;;;;;5087574;28;20182;-89
2023/12/22 12:17:08;;;;;;;4.77;1.90;;;14.50;99.90;;;;;;5085898;28;20259;-89
2023/12/22 12:19:39;;;;;;;6.60;2.10;;;14.50;99.90;;;;;;5069349;28;20183;-89
2023/12/22 12:22:08;;;;;;;5.63;1.80;;;14.50;99.90;;;;;;5072665;28;20406;-90
2023/12/22 12:24:38;;;;;;;5.63;2.07;;;14.50;99.90;;;;;;5086401;28;20174;-90
2023/12/22 12:27:07;;;;;;;5.13;1.83;;;14.50;99.90;;;;;;5078185;28;20208;-90
2023/12/22 12:29:36;;;;;;;3.60;1.90;;;14.50;99.90;;;;;;5085916;28;20178;-90
2023/12/22 12:32:08;;;;;;;4.10;1.90;;;14.50;99.90;;;;;;5081724;28;20269;-89
2023/12/22 12:34:36;;;;;;;5.70;2.03;;;14.40;99.90;;;;;;5085327;28;20570;-89
2023/12/22 12:37:05;;;;;;;3.67;1.63;;;14.40;99.90;;;;;;5085780;28;20179;-89
2023/12/22 12:39:34;;;;;;;4.63;1.77;;;14.40;99.90;;;;;;5089744;28;20280;-90
2023/12/22 12:42:07;;;;;;;3.50;1.97;;;14.50;99.90;;;;;;5088757;28;20241;-90
2023/12/22 12:44:35;;;;;;;5.97;2.17;;;14.50;99.90;;;;;;5078327;28;20177;-91
2023/12/22 12:47:14;;;;;;;4.20;1.70;;;14.60;99.90;;;;;;5072828;28;20171;-90
2023/12/22 12:49:41;;;;;;;5.07;1.73;;;14.60;99.90;;;;;;5091403;28;20172;-89
2023/12/22 12:52:15;;;;;;;5.53;1.83;;;14.60;99.90;;;;;;5086518;28;20191;-89
2023/12/22 12:54:47;;;;;;;4.37;1.63;;;14.60;99.90;;;;;;5077183;28;20246;-89
2023/12/22 12:57:18;;;;;;;4.97;1.63;;;14.60;99.90;;;;;;5072978;28;20257;-89
2023/12/22 12:59:51;;;;;;;6.40;1.67;;;14.70;99.90;;;;;;5079322;28;20248;-90
2023/12/22 13:02:22;;;;;;;5.53;1.60;;;14.60;99.90;;;;;;5070513;28;20343;-90